Time;durP1;ratioP1;P1;durP2;ratioP2;P2;SDS_P1;SDS_P2;PMS_P1;PMS_P2;Temp;Humidity;BMP_temperature;BMP_pressure;BME280_temperature;BME280_humidity;BME280_pressure;Samples;Min_cycle;Max_cycle;Signal;HPM_P1;HPM_P2
2023/03/08 00:01:26;;;;;;;6.23;4.13;;;;;;;;;;5091711;28;20219;-78
2023/03/08 00:03:53;;;;;;;4.30;2.90;;;;;;;;;;5080063;28;20201;-78
2023/03/08 00:06:22;;;;;;;3.97;3.50;;;;;;;;;;5090863;28;20192;-78
2023/03/08 00:08:49;;;;;;;3.40;3.10;;;;;;;;;;5092094;28;20675;-78
2023/03/08 00:11:18;;;;;;;4.30;3.90;;;;;;;;;;5092067;28;20208;-78
2023/03/08 00:13:45;;;;;;;5.07;3.97;;;;;;;;;;5091775;28;20231;-79
2023/03/08 00:16:13;;;;;;;3.40;2.93;;;;;;;;;;5084126;28;20672;-78
2023/03/08 00:18:40;;;;;;;3.30;3.00;;;;;;;;;;5085550;28;20295;-79
2023/03/08 00:21:09;;;;;;;3.10;2.70;;;;;;;;;;5084550;28;20592;-79
2023/03/08 00:23:37;;;;;;;3.10;2.80;;;;;;;;;;5086426;28;20254;-78
2023/03/08 00:26:04;;;;;;;3.07;2.77;;;;;;;;;;5083116;28;20201;-78
2023/03/08 00:28:31;;;;;;;4.13;2.80;;;;;;;;;;5086536;28;20229;-78
2023/03/08 00:30:59;;;;;;;5.10;3.50;;;;;;;;;;5091702;28;20200;-78
2023/03/08 00:37:06;;;;;;;4.53;2.57;;;;;;;;;;5087878;28;20203;-78
2023/03/08 00:39:34;;;;;;;4.90;2.57;;;;;;;;;;5091480;28;20200;-78
2023/03/08 00:42:02;;;;;;;5.40;2.40;;;;;;;;;;5076822;28;20645;-78
2023/03/08 00:47:12;;;;;;;3.27;2.97;;;;;;;;;;5091283;28;20261;-79
2023/03/08 00:49:57;;;;;;;4.47;3.50;;;;;;;;;;5088472;28;20206;-78
2023/03/08 00:52:43;;;;;;;4.80;2.80;;;;;;;;;;5082882;28;20196;-79
2023/03/08 00:55:29;;;;;;;3.37;3.07;;;;;;;;;;5065763;28;20698;-78
2023/03/08 00:58:14;;;;;;;6.43;3.37;;;;;;;;;;5090880;28;20208;-78
2023/03/08 01:00:59;;;;;;;3.20;2.83;;;;;;;;;;5078003;28;20209;-78
2023/03/08 01:03:26;;;;;;;3.87;3.30;;;;;;;;;;5059651;28;20197;-78
2023/03/08 01:06:13;;;;;;;9.27;6.20;;;;;;;;;;5086522;28;20204;-78
2023/03/08 01:09:17;;;;;;;5.07;4.40;;;;;;;;;;5078845;28;20228;-78
2023/03/08 01:12:04;;;;;;;4.53;2.73;;;;;;;;;;5072235;28;20204;-78
2023/03/08 01:14:49;;;;;;;5.77;3.37;;;;;;;;;;5090842;28;20282;-78
2023/03/08 01:17:34;;;;;;;3.33;2.77;;;;;;;;;;5090734;28;20274;-79
2023/03/08 01:20:38;;;;;;;4.60;2.87;;;;;;;;;;5091128;28;20632;-78
2023/03/08 01:23:05;;;;;;;4.60;2.43;;;;;;;;;;5091149;28;20634;-78
2023/03/08 01:25:50;;;;;;;3.63;2.50;;;;;;;;;;5090500;28;20692;-78
2023/03/08 01:28:36;;;;;;;3.47;3.17;;;;;;;;;;5090787;28;20203;-79
2023/03/08 01:31:41;;;;;;;3.00;2.60;;;;;;;;;;5090454;28;20208;-79
2023/03/08 01:34:09;;;;;;;9.37;5.57;;;;;;;;;;5067614;28;20204;-78
2023/03/08 01:36:55;;;;;;;7.80;5.23;;;;;;;;;;5089907;28;20261;-78
2023/03/08 01:39:40;;;;;;;58.77;32.00;;;;;;;;;;5090330;28;20211;-79
2023/03/08 01:42:07;;;;;;;8.00;5.93;;;;;;;;;;5090847;28;20281;-78
2023/03/08 01:44:54;;;;;;;3.83;3.50;;;;;;;;;;5090235;28;20611;-78
2023/03/08 01:47:58;;;;;;;4.73;4.00;;;;;;;;;;5079866;28;20200;-79
2023/03/08 01:50:25;;;;;;;4.93;4.17;;;;;;;;;;5059958;28;20197;-78
2023/03/08 01:53:12;;;;;;;4.23;3.67;;;;;;;;;;5089338;28;20212;-78
2023/03/08 01:55:39;;;;;;;2.73;2.50;;;;;;;;;;5082595;28;20212;-78
2023/03/08 01:58:36;;;;;;;3.07;2.77;;;;;;;;;;5093327;28;20200;-78
2023/03/08 02:01:04;;;;;;;3.53;3.23;;;;;;;;;;5093667;28;20679;-78
2023/03/08 02:03:31;;;;;;;4.70;3.63;;;;;;;;;;5094129;28;20232;-79
2023/03/08 02:05:58;;;;;;;5.07;4.43;;;;;;;;;;5080555;28;20196;-79
2023/03/08 02:08:24;;;;;;;5.93;4.27;;;;;;;;;;5094357;28;20647;-79
2023/03/08 02:10:52;;;;;;;4.50;3.57;;;;;;;;;;5094064;28;20201;-78
2023/03/08 02:13:20;;;;;;;3.77;3.23;;;;;;;;;;5084415;28;20556;-79
2023/03/08 02:15:47;;;;;;;6.23;4.13;;;;;;;;;;5091675;28;20643;-78
2023/03/08 02:18:15;;;;;;;3.83;3.53;;;;;;;;;;5083127;28;20592;-78
2023/03/08 02:20:42;;;;;;;5.37;4.17;;;;;;;;;;5092506;28;20207;-78
2023/03/08 02:23:12;;;;;;;4.47;3.60;;;;;;;;;;5093856;28;20677;-78
2023/03/08 02:25:39;;;;;;;3.63;3.20;;;;;;;;;;5079951;28;20602;-79
2023/03/08 02:28:06;;;;;;;3.77;2.87;;;;;;;;;;5094525;28;20201;-78
2023/03/08 02:30:35;;;;;;;5.50;3.83;;;;;;;;;;5093549;28;20661;-79
2023/03/08 02:33:02;;;;;;;3.60;3.30;;;;;;;;;;5080868;28;20200;-79
2023/03/08 02:38:34;;;;;;;5.53;3.97;;;;;;;;;;5092591;28;20264;-79
2023/03/08 02:44:03;;;;;;;4.83;3.43;;;;;;;;;;5070126;28;20284;-79
2023/03/08 02:46:48;;;;;;;4.50;3.57;;;;;;;;;;5080046;28;20204;-79
2023/03/08 02:49:33;;;;;;;3.80;3.27;;;;;;;;;;5093538;28;20199;-79
2023/03/08 02:52:00;;;;;;;3.80;3.50;;;;;;;;;;5072229;28;20200;-78
2023/03/08 02:57:18;;;;;;;5.47;3.63;;;;;;;;;;5093382;28;20296;-78
2023/03/08 02:59:45;;;;;;;3.87;3.37;;;;;;;;;;5093681;28;20204;-79
2023/03/08 03:02:12;;;;;;;6.77;3.77;;;;;;;;;;5093000;28;20220;-78
2023/03/08 03:04:38;;;;;;;3.63;3.33;;;;;;;;;;5092293;28;20209;-79
2023/03/08 03:07:05;;;;;;;3.40;3.13;;;;;;;;;;5093133;28;20293;-79
2023/03/08 03:09:35;;;;;;;3.50;3.20;;;;;;;;;;5092822;28;20667;-79
2023/03/08 03:14:49;;;;;;;2.93;2.73;;;;;;;;;;5093436;28;20214;-79
2023/03/08 03:17:16;;;;;;;4.97;3.70;;;;;;;;;;5092487;28;20197;-79
2023/03/08 03:22:46;;;;;;;3.73;3.40;;;;;;;;;;5092068;28;20223;-79
2023/03/08 03:25:15;;;;;;;4.57;3.23;;;;;;;;;;5092753;28;20597;-78
2023/03/08 03:27:59;;;;;;;4.47;3.80;;;;;;;;;;5092822;28;20589;-78
2023/03/08 03:30:26;;;;;;;3.93;3.23;;;;;;;;;;5092494;28;20560;-78
2023/03/08 03:32:53;;;;;;;5.77;3.43;;;;;;;;;;5084751;28;20197;-79
2023/03/08 03:35:20;;;;;;;5.27;3.70;;;;;;;;;;5090773;28;20226;-79
2023/03/08 03:37:46;;;;;;;3.30;3.00;;;;;;;;;;5081559;28;20657;-79
2023/03/08 03:40:15;;;;;;;3.23;2.93;;;;;;;;;;5090666;28;20262;-78
2023/03/08 03:42:42;;;;;;;3.73;3.43;;;;;;;;;;5092211;28;20715;-78
2023/03/08 03:45:09;;;;;;;5.70;3.70;;;;;;;;;;5086912;28;20201;-79
2023/03/08 03:47:36;;;;;;;3.60;3.30;;;;;;;;;;5085160;28;20200;-78
2023/03/08 03:50:03;;;;;;;4.53;4.13;;;;;;;;;;5078161;28;20629;-79
2023/03/08 03:52:29;;;;;;;6.13;3.47;;;;;;;;;;5092033;28;20213;-78
2023/03/08 03:54:56;;;;;;;3.77;3.40;;;;;;;;;;5092051;28;20592;-79
2023/03/08 03:57:25;;;;;;;9.80;8.33;;;;;;;;;;5091285;28;20204;-79
2023/03/08 03:59:52;;;;;;;13.37;8.43;;;;;;;;;;5092510;28;20295;-78
2023/03/08 04:02:18;;;;;;;10.70;7.23;;;;;;;;;;5078540;28;20227;-79
2023/03/08 04:04:49;;;;;;;8.70;6.60;;;;;;;;;;5092056;28;20204;-79
2023/03/08 04:07:15;;;;;;;9.43;7.90;;;;;;;;;;5090313;28;20229;-78
2023/03/08 04:09:42;;;;;;;8.83;6.47;;;;;;;;;;5079647;28;20661;-78
2023/03/08 04:12:09;;;;;;;6.17;5.43;;;;;;;;;;5091307;28;20212;-79
2023/03/08 04:14:39;;;;;;;5.87;5.20;;;;;;;;;;5091647;28;20212;-79
2023/03/08 04:17:06;;;;;;;7.67;5.67;;;;;;;;;;5081836;28;20250;-79
2023/03/08 04:19:32;;;;;;;10.33;6.97;;;;;;;;;;5083423;28;20629;-79
2023/03/08 04:21:59;;;;;;;8.03;6.97;;;;;;;;;;5081081;28;20676;-79
2023/03/08 04:24:26;;;;;;;8.23;6.47;;;;;;;;;;5088420;28;20204;-79
2023/03/08 04:26:52;;;;;;;11.60;7.87;;;;;;;;;;5090791;28;20208;-79
2023/03/08 04:29:19;;;;;;;11.83;8.83;;;;;;;;;;5091323;28;20196;-80
2023/03/08 04:31:47;;;;;;;9.63;8.57;;;;;;;;;;5089923;28;20190;-80
2023/03/08 04:34:14;;;;;;;9.03;7.67;;;;;;;;;;5084431;28;20192;-80
2023/03/08 04:36:41;;;;;;;26.50;19.70;;;;;;;;;;5081105;28;20208;-79
2023/03/08 04:39:08;;;;;;;49.30;33.80;;;;;;;;;;5084031;28;20255;-79
2023/03/08 04:41:34;;;;;;;21.67;15.87;;;;;;;;;;5085574;28;20200;-80
2023/03/08 04:44:01;;;;;;;23.57;17.87;;;;;;;;;;5091528;28;20227;-79
2023/03/08 04:46:28;;;;;;;35.63;22.13;;;;;;;;;;5090466;28;20204;-81
2023/03/08 04:48:56;;;;;;;6.87;5.60;;;;;;;;;;5091691;28;20208;-79
2023/03/08 04:51:24;;;;;;;6.07;5.47;;;;;;;;;;5090396;28;20197;-79
2023/03/08 04:53:52;;;;;;;8.17;6.63;;;;;;;;;;5091382;28;20200;-80
2023/03/08 04:56:22;;;;;;;7.00;5.30;;;;;;;;;;5087635;28;20214;-79
2023/03/08 04:58:49;;;;;;;6.00;4.03;;;;;;;;;;5079895;28;20286;-79
2023/03/08 05:01:17;;;;;;;6.10;4.43;;;;;;;;;;5090026;28;20233;-79
2023/03/08 05:03:45;;;;;;;6.43;5.20;;;;;;;;;;5089614;28;20257;-79
2023/03/08 05:06:13;;;;;;;5.93;5.00;;;;;;;;;;5089765;28;20204;-80
2023/03/08 05:08:41;;;;;;;6.70;5.23;;;;;;;;;;5090212;28;20311;-79
2023/03/08 05:11:08;;;;;;;8.97;4.93;;;;;;;;;;5078290;28;20196;-79
2023/03/08 05:13:36;;;;;;;9.23;4.43;;;;;;;;;;5090843;28;20196;-79
2023/03/08 05:16:04;;;;;;;5.43;4.70;;;;;;;;;;5075464;28;20204;-79
2023/03/08 05:18:31;;;;;;;5.67;4.23;;;;;;;;;;5088997;28;20204;-80
2023/03/08 05:20:59;;;;;;;5.33;3.60;;;;;;;;;;5075689;28;20265;-80
2023/03/08 05:23:28;;;;;;;3.67;3.30;;;;;;;;;;5091036;28;20223;-91
2023/03/08 05:25:58;;;;;;;5.27;4.17;;;;;;;;;;5090579;28;20196;-79
2023/03/08 05:28:27;;;;;;;4.77;3.70;;;;;;;;;;5080485;28;20200;-79
2023/03/08 05:31:00;;;;;;;4.83;3.83;;;;;;;;;;5086934;28;20200;-79
2023/03/08 05:33:27;;;;;;;5.23;4.27;;;;;;;;;;5075529;28;20197;-80
2023/03/08 05:35:54;;;;;;;4.60;3.93;;;;;;;;;;5071392;28;20193;-80
2023/03/08 05:38:21;;;;;;;11.80;7.63;;;;;;;;;;5076284;28;20216;-79
2023/03/08 05:40:49;;;;;;;75.73;33.63;;;;;;;;;;5088237;28;20196;-79
2023/03/08 05:43:16;;;;;;;185.80;86.80;;;;;;;;;;5078079;28;20228;-79
2023/03/08 05:45:43;;;;;;;144.83;87.23;;;;;;;;;;5089438;28;20211;-79
2023/03/08 05:48:10;;;;;;;66.63;37.67;;;;;;;;;;5090480;28;20211;-79
2023/03/08 05:50:37;;;;;;;27.53;18.80;;;;;;;;;;5088565;28;20200;-79
2023/03/08 05:53:04;;;;;;;13.57;10.80;;;;;;;;;;5089442;28;20201;-79
2023/03/08 05:55:31;;;;;;;33.20;18.30;;;;;;;;;;5076260;28;20671;-79
2023/03/08 05:57:59;;;;;;;30.97;17.00;;;;;;;;;;5090718;28;20270;-79
2023/03/08 06:00:26;;;;;;;33.43;18.00;;;;;;;;;;5063734;28;20203;-79
2023/03/08 06:02:53;;;;;;;28.87;19.87;;;;;;;;;;5090331;28;20219;-79
2023/03/08 06:05:20;;;;;;;20.97;14.27;;;;;;;;;;5090751;28;20955;-80
2023/03/08 06:07:46;;;;;;;16.70;12.73;;;;;;;;;;5090479;28;20710;-79
2023/03/08 06:10:14;;;;;;;11.37;8.80;;;;;;;;;;5090563;28;20215;-79
2023/03/08 06:12:40;;;;;;;9.43;8.53;;;;;;;;;;5090726;28;20207;-79
2023/03/08 06:15:10;;;;;;;8.90;7.37;;;;;;;;;;5090594;28;20707;-80
2023/03/08 06:17:37;;;;;;;8.67;6.17;;;;;;;;;;5084470;28;20197;-79
2023/03/08 06:20:04;;;;;;;6.57;5.20;;;;;;;;;;5082825;28;20648;-80
2023/03/08 06:22:31;;;;;;;5.67;4.73;;;;;;;;;;5090338;28;20196;-79
2023/03/08 06:24:58;;;;;;;5.20;4.13;;;;;;;;;;5077686;28;20707;-79
2023/03/08 06:27:24;;;;;;;4.67;4.23;;;;;;;;;;5089697;28;20200;-80
2023/03/08 06:29:52;;;;;;;3.70;3.40;;;;;;;;;;5090341;28;20291;-79
2023/03/08 06:32:20;;;;;;;9.47;7.60;;;;;;;;;;5090332;28;20646;-79
2023/03/08 06:34:47;;;;;;;11.20;8.23;;;;;;;;;;5090702;28;20227;-79
2023/03/08 06:37:14;;;;;;;16.50;12.47;;;;;;;;;;5090190;28;20667;-79
2023/03/08 06:39:41;;;;;;;13.47;9.33;;;;;;;;;;5092872;28;20246;-79
2023/03/08 06:42:08;;;;;;;14.37;10.67;;;;;;;;;;5094037;28;20200;-79
2023/03/08 06:44:34;;;;;;;10.13;8.83;;;;;;;;;;5093924;28;20228;-79
2023/03/08 06:47:01;;;;;;;9.30;7.43;;;;;;;;;;5093809;28;20203;-79
2023/03/08 06:49:29;;;;;;;10.47;7.30;;;;;;;;;;5093308;28;20226;-79
2023/03/08 06:51:56;;;;;;;6.77;6.00;;;;;;;;;;5093694;28;20200;-79
2023/03/08 06:54:23;;;;;;;8.47;6.93;;;;;;;;;;5080466;28;20209;-79
2023/03/08 06:56:49;;;;;;;10.70;7.00;;;;;;;;;;5084030;28;20232;-79
2023/03/08 06:59:16;;;;;;;7.03;5.83;;;;;;;;;;5089974;28;21422;-79
2023/03/08 07:01:43;;;;;;;8.07;5.77;;;;;;;;;;5093609;28;20212;-79
2023/03/08 07:04:10;;;;;;;8.33;6.67;;;;;;;;;;5093174;28;20216;-79
2023/03/08 07:06:38;;;;;;;8.70;7.03;;;;;;;;;;5093451;28;20204;-78
2023/03/08 07:09:04;;;;;;;11.73;6.90;;;;;;;;;;5093009;28;20224;-79
2023/03/08 07:11:32;;;;;;;7.00;6.40;;;;;;;;;;5093201;28;20196;-79
2023/03/08 07:13:59;;;;;;;5.73;5.00;;;;;;;;;;5092992;28;20681;-79
2023/03/08 07:16:26;;;;;;;6.90;5.13;;;;;;;;;;5083302;28;20209;-79
2023/03/08 07:18:53;;;;;;;5.97;4.63;;;;;;;;;;5089413;28;20203;-79
2023/03/08 07:21:20;;;;;;;12.63;5.03;;;;;;;;;;5092702;28;20671;-79
2023/03/08 07:23:52;;;;;;;5.47;4.80;;;;;;;;;;5092596;28;20223;-79
2023/03/08 07:26:19;;;;;;;7.33;4.77;;;;;;;;;;5092995;28;20686;-79
2023/03/08 07:28:49;;;;;;;6.13;4.60;;;;;;;;;;5092563;28;20642;-79
2023/03/08 07:31:15;;;;;;;5.77;4.20;;;;;;;;;;5093052;28;20204;-79
2023/03/08 07:33:42;;;;;;;9.03;4.47;;;;;;;;;;5092038;28;20207;-79
2023/03/08 07:36:09;;;;;;;7.40;4.80;;;;;;;;;;5092489;28;20667;-79
2023/03/08 07:38:36;;;;;;;4.93;4.17;;;;;;;;;;5092559;28;20328;-79
2023/03/08 07:41:04;;;;;;;5.30;4.70;;;;;;;;;;5092964;28;20415;-79
2023/03/08 07:43:31;;;;;;;6.73;4.13;;;;;;;;;;5092339;28;20780;-79
2023/03/08 07:46:00;;;;;;;7.20;5.03;;;;;;;;;;5093138;28;20257;-79
2023/03/08 07:48:28;;;;;;;5.30;4.63;;;;;;;;;;5079040;28;20292;-78
2023/03/08 07:50:55;;;;;;;5.00;4.33;;;;;;;;;;5092356;28;20200;-79
2023/03/08 07:53:21;;;;;;;6.30;4.13;;;;;;;;;;5092044;28;20721;-79
2023/03/08 07:55:48;;;;;;;4.60;3.37;;;;;;;;;;5079077;28;20207;-79
2023/03/08 07:58:16;;;;;;;5.13;3.67;;;;;;;;;;5092597;28;20200;-79
2023/03/08 08:00:43;;;;;;;4.57;3.20;;;;;;;;;;5091789;28;20741;-79
2023/03/08 08:03:10;;;;;;;5.60;4.50;;;;;;;;;;5084339;28;20200;-79
2023/03/08 08:05:36;;;;;;;8.30;4.30;;;;;;;;;;5085947;28;20203;-79
2023/03/08 08:08:03;;;;;;;5.13;4.13;;;;;;;;;;5092340;28;20638;-79
2023/03/08 08:10:30;;;;;;;5.67;3.77;;;;;;;;;;5091297;28;20206;-80
2023/03/08 08:12:57;;;;;;;6.27;3.40;;;;;;;;;;5092229;28;20198;-78
2023/03/08 08:15:25;;;;;;;5.07;4.10;;;;;;;;;;5090922;28;20653;-79
2023/03/08 08:17:52;;;;;;;6.13;4.23;;;;;;;;;;5091916;28;20207;-79
2023/03/08 08:20:20;;;;;;;11.23;6.83;;;;;;;;;;5091884;28;20211;-79
2023/03/08 08:22:48;;;;;;;6.43;5.17;;;;;;;;;;5092004;28;20698;-79
2023/03/08 08:25:15;;;;;;;6.57;3.80;;;;;;;;;;5091577;28;20639;-79
2023/03/08 08:27:42;;;;;;;6.63;4.33;;;;;;;;;;5091555;28;20207;-79
2023/03/08 08:30:10;;;;;;;5.27;4.00;;;;;;;;;;5091557;28;20204;-80
2023/03/08 08:32:39;;;;;;;3.80;3.40;;;;;;;;;;5091761;28;20204;-79
2023/03/08 08:35:07;;;;;;;6.67;4.00;;;;;;;;;;5091334;28;20626;-80
2023/03/08 08:37:34;;;;;;;4.53;3.33;;;;;;;;;;5091779;28;20204;-80
2023/03/08 08:40:00;;;;;;;6.17;4.03;;;;;;;;;;5091585;28;20192;-79
2023/03/08 08:42:27;;;;;;;4.23;3.90;;;;;;;;;;5091431;28;20671;-79
2023/03/08 08:44:55;;;;;;;7.63;6.67;;;;;;;;;;5091374;28;20652;-80
2023/03/08 08:47:22;;;;;;;6.93;4.33;;;;;;;;;;5091729;28;20231;-79
2023/03/08 08:49:52;;;;;;;4.30;3.90;;;;;;;;;;5091962;28;20203;-79
2023/03/08 08:52:19;;;;;;;9.30;4.50;;;;;;;;;;5091614;28;20254;-79
2023/03/08 08:54:45;;;;;;;6.63;5.43;;;;;;;;;;5077043;28;20204;-79
2023/03/08 08:57:12;;;;;;;5.73;4.73;;;;;;;;;;5091049;28;20644;-78
2023/03/08 08:59:39;;;;;;;4.40;3.67;;;;;;;;;;5091233;28;20200;-79
2023/03/08 09:02:05;;;;;;;5.23;4.73;;;;;;;;;;5089930;28;20595;-79
2023/03/08 09:04:32;;;;;;;4.50;4.10;;;;;;;;;;5090816;28;20216;-79
2023/03/08 09:07:00;;;;;;;4.83;3.63;;;;;;;;;;5091069;28;20200;-79
2023/03/08 09:09:27;;;;;;;4.27;3.87;;;;;;;;;;5091317;28;20200;-79
2023/03/08 09:11:54;;;;;;;3.67;3.37;;;;;;;;;;5078413;28;20731;-78
2023/03/08 09:14:20;;;;;;;5.00;3.73;;;;;;;;;;5089509;28;20204;-79
2023/03/08 09:16:47;;;;;;;6.17;3.67;;;;;;;;;;5090835;28;20206;-78
2023/03/08 09:19:14;;;;;;;4.43;3.17;;;;;;;;;;5090556;28;20202;-78
2023/03/08 09:21:41;;;;;;;7.63;3.60;;;;;;;;;;5090310;28;20205;-79
2023/03/08 09:24:11;;;;;;;6.23;3.67;;;;;;;;;;5077109;28;20229;-79
2023/03/08 09:26:38;;;;;;;3.87;3.10;;;;;;;;;;5090563;28;20698;-81
2023/03/08 09:29:06;;;;;;;5.70;3.53;;;;;;;;;;5057455;28;20201;-78
2023/03/08 09:31:33;;;;;;;4.23;3.63;;;;;;;;;;5083891;28;20257;-79
2023/03/08 09:34:03;;;;;;;3.63;3.20;;;;;;;;;;5090278;28;20201;-83
2023/03/08 09:36:30;;;;;;;6.30;3.70;;;;;;;;;;5089347;28;20295;-78
2023/03/08 09:38:57;;;;;;;4.57;3.53;;;;;;;;;;5078921;28;20207;-78
2023/03/08 09:41:33;;;;;;;4.20;3.73;;;;;;;;;;5090152;28;20200;-78
2023/03/08 09:44:17;;;;;;;4.53;3.87;;;;;;;;;;5090649;28;20711;-80
2023/03/08 09:46:47;;;;;;;6.07;4.37;;;;;;;;;;5090431;28;20632;-78
2023/03/08 09:49:17;;;;;;;4.67;4.00;;;;;;;;;;5090603;28;20265;-79
2023/03/08 09:51:46;;;;;;;4.10;3.60;;;;;;;;;;5090324;28;20634;-79
2023/03/08 09:54:16;;;;;;;4.23;3.83;;;;;;;;;;5090144;28;20211;-79
2023/03/08 09:56:47;;;;;;;6.40;3.53;;;;;;;;;;5090669;28;20219;-78
2023/03/08 09:59:17;;;;;;;6.20;4.07;;;;;;;;;;5090218;28;20209;-79
2023/03/08 10:01:50;;;;;;;6.00;4.97;;;;;;;;;;5090452;28;20587;-78
2023/03/08 10:04:36;;;;;;;6.03;4.40;;;;;;;;;;5090846;28;20249;-79
2023/03/08 10:07:21;;;;;;;5.37;4.87;;;;;;;;;;5089605;28;20214;-79
2023/03/08 10:09:53;;;;;;;6.43;4.67;;;;;;;;;;5068681;28;20207;-76
2023/03/08 10:12:28;;;;;;;5.03;4.53;;;;;;;;;;5090440;28;20238;-76
2023/03/08 10:14:57;;;;;;;8.03;6.93;;;;;;;;;;5094865;28;20289;-79
2023/03/08 10:17:30;;;;;;;6.50;5.53;;;;;;;;;;5094619;28;20207;-78
2023/03/08 10:19:59;;;;;;;9.77;6.27;;;;;;;;;;5094211;28;20197;-76
2023/03/08 10:22:29;;;;;;;6.30;5.00;;;;;;;;;;5093925;28;20207;-76
2023/03/08 10:24:59;;;;;;;6.40;4.57;;;;;;;;;;5094574;28;20228;-78
2023/03/08 10:27:31;;;;;;;5.17;4.67;;;;;;;;;;5094160;28;20196;-78
2023/03/08 10:29:59;;;;;;;11.23;5.23;;;;;;;;;;5093901;28;20196;-79
2023/03/08 10:32:27;;;;;;;9.20;5.13;;;;;;;;;;5094149;28;20200;-78
2023/03/08 10:35:00;;;;;;;7.80;6.03;;;;;;;;;;5093469;28;20214;-78
2023/03/08 10:37:30;;;;;;;5.13;4.63;;;;;;;;;;5093558;28;20200;-78
2023/03/08 10:40:01;;;;;;;6.17;5.57;;;;;;;;;;5094038;28;20682;-77
2023/03/08 10:42:30;;;;;;;7.87;5.27;;;;;;;;;;5094073;28;20206;-77
2023/03/08 10:44:58;;;;;;;5.97;4.83;;;;;;;;;;5093496;28;20222;-77
2023/03/08 10:47:27;;;;;;;5.13;4.73;;;;;;;;;;5093373;28;20213;-77
2023/03/08 10:50:14;;;;;;;6.90;4.73;;;;;;;;;;5092898;28;20203;-77
2023/03/08 10:52:41;;;;;;;6.03;4.83;;;;;;;;;;5092717;28;20666;-77
2023/03/08 10:55:12;;;;;;;6.47;5.10;;;;;;;;;;5093495;28;20672;-78
2023/03/08 10:57:44;;;;;;;10.07;8.53;;;;;;;;;;5093227;28;20200;-77
2023/03/08 11:00:28;;;;;;;7.43;5.00;;;;;;;;;;5093237;28;20207;-79
2023/03/08 11:03:03;;;;;;;9.50;7.30;;;;;;;;;;5093702;28;20198;-78
2023/03/08 11:05:30;;;;;;;11.03;8.93;;;;;;;;;;5093329;28;20592;-78
2023/03/08 11:07:59;;;;;;;7.00;6.30;;;;;;;;;;5092584;28;20224;-76
2023/03/08 11:10:27;;;;;;;5.37;4.57;;;;;;;;;;5093255;28;20201;-78
2023/03/08 11:13:03;;;;;;;7.97;5.23;;;;;;;;;;5093308;28;20742;-77
2023/03/08 11:15:31;;;;;;;4.87;4.37;;;;;;;;;;5092854;28;20216;-77
2023/03/08 11:18:03;;;;;;;6.07;5.47;;;;;;;;;;5092874;28;20204;-76
2023/03/08 11:20:35;;;;;;;11.10;8.90;;;;;;;;;;5093020;27;20212;-77
2023/03/08 11:23:15;;;;;;;6.90;5.80;;;;;;;;;;5093186;28;20201;-77
2023/03/08 11:25:45;;;;;;;8.53;4.70;;;;;;;;;;5091575;28;20244;-77
2023/03/08 11:28:43;;;;;;;5.30;3.87;;;;;;;;;;5092758;28;20287;-77
2023/03/08 11:31:15;;;;;;;5.27;4.73;;;;;;;;;;5050136;28;20213;-77
2023/03/08 11:33:57;;;;;;;7.07;4.93;;;;;;;;;;5092597;28;20202;-76
2023/03/08 11:36:29;;;;;;;13.30;11.90;;;;;;;;;;5092228;28;20207;-76
2023/03/08 11:38:58;;;;;;;13.57;10.87;;;;;;;;;;5059980;28;20208;-77
2023/03/08 11:41:32;;;;;;;7.73;5.90;;;;;;;;;;5087663;28;20620;-77
2023/03/08 11:44:19;;;;;;;12.10;7.80;;;;;;;;;;5092362;28;20264;-77
2023/03/08 11:46:53;;;;;;;10.53;7.83;;;;;;;;;;5092183;28;20217;-76
2023/03/08 11:49:32;;;;;;;6.73;5.77;;;;;;;;;;5092371;28;20207;-76
2023/03/08 11:52:06;;;;;;;3.93;3.53;;;;;;;;;;5068893;28;20197;-76
2023/03/08 11:54:46;;;;;;;6.00;4.97;;;;;;;;;;5092658;28;20201;-77
2023/03/08 11:57:14;;;;;;;4.20;2.60;;;;;;;;;;5092307;28;20211;-76
2023/03/08 11:59:46;;;;;;;3.53;2.40;;;;;;;;;;5091839;28;20205;-77
2023/03/08 12:02:16;;;;;;;3.23;1.90;;;;;;;;;;5091657;28;20205;-76
2023/03/08 12:04:55;;;;;;;1.50;1.40;;;;;;;;;;5092094;28;20256;-76
2023/03/08 12:07:27;;;;;;;1.83;1.67;;;;;;;;;;5091706;28;20224;-77
2023/03/08 12:09:58;;;;;;;1.60;1.50;;;;;;;;;;5091750;28;20207;-76
2023/03/08 12:12:28;;;;;;;1.47;1.27;;;;;;;;;;5091535;28;20750;-77
2023/03/08 12:14:59;;;;;;;2.87;1.50;;;;;;;;;;5091736;28;20258;-76
2023/03/08 12:17:28;;;;;;;1.67;1.17;;;;;;;;;;5091546;28;20265;-76
2023/03/08 12:19:55;;;;;;;2.07;1.47;;;;;;;;;;5092161;28;20208;-76
2023/03/08 12:22:32;;;;;;;1.40;1.30;;;;;;;;;;5091430;28;20205;-76
2023/03/08 12:25:06;;;;;;;1.90;1.60;;;;;;;;;;5091679;28;20220;-78
2023/03/08 12:27:39;;;;;;;1.30;1.20;;;;;;;;;;5091598;28;20252;-77
2023/03/08 12:30:16;;;;;;;2.90;1.50;;;;;;;;;;5091921;28;20204;-77
2023/03/08 12:32:44;;;;;;;1.83;1.73;;;;;;;;;;5091519;28;20196;-76
2023/03/08 12:35:26;;;;;;;3.40;1.00;;;;;;;;;;5090744;28;20736;-77
2023/03/08 12:37:56;;;;;;;2.53;1.60;;;;;;;;;;5091232;28;20204;-76
2023/03/08 12:40:30;;;;;;;1.07;0.97;;;;;;;;;;5091287;28;20223;-77
2023/03/08 12:43:05;;;;;;;1.63;1.40;;;;;;;;;;5091368;28;20200;-77
2023/03/08 12:45:33;;;;;;;1.40;1.30;;;;;;;;;;5091564;28;20216;-77
2023/03/08 12:48:24;;;;;;;1.60;1.40;;;;;;;;;;5091109;28;20208;-77
2023/03/08 12:51:00;;;;;;;3.80;1.57;;;;;;;;;;5080600;28;20261;-77
2023/03/08 12:53:34;;;;;;;1.97;1.83;;;;;;;;;;5091488;28;20204;-77
2023/03/08 12:56:22;;;;;;;2.50;1.93;;;;;;;;;;5090797;28;20206;-77
2023/03/08 12:58:52;;;;;;;3.80;3.50;;;;;;;;;;5091230;28;20621;-77
2023/03/08 13:01:34;;;;;;;2.90;2.70;;;;;;;;;;5090672;28;20265;-77
2023/03/08 13:04:02;;;;;;;1.50;1.40;;;;;;;;;;5090643;28;20207;-77
2023/03/08 13:06:56;;;;;;;1.97;1.37;;;;;;;;;;5091006;28;20232;-77
2023/03/08 13:09:26;;;;;;;1.33;1.13;;;;;;;;;;5086462;28;20764;-76
2023/03/08 13:12:00;;;;;;;1.53;0.97;;;;;;;;;;5083171;28;20204;-77
2023/03/08 13:14:28;;;;;;;2.03;1.10;;;;;;;;;;5091122;28;20196;-77
2023/03/08 13:16:56;;;;;;;1.23;1.00;;;;;;;;;;5090307;28;20204;-77
2023/03/08 13:19:26;;;;;;;2.73;1.13;;;;;;;;;;5090560;28;20690;-77
2023/03/08 13:22:00;;;;;;;1.00;0.90;;;;;;;;;;5077411;28;20208;-77
2023/03/08 13:24:39;;;;;;;0.83;0.83;;;;;;;;;;5090846;28;20291;-77
2023/03/08 13:27:21;;;;;;;0.77;0.77;;;;;;;;;;5090723;28;20227;-77
2023/03/08 13:29:48;;;;;;;3.13;1.30;;;;;;;;;;5091009;28;20204;-78
2023/03/08 13:32:19;;;;;;;1.93;1.70;;;;;;;;;;5064311;28;20636;-77
2023/03/08 13:34:58;;;;;;;2.03;1.87;;;;;;;;;;5090273;28;20265;-77
2023/03/08 13:37:26;;;;;;;3.10;2.80;;;;;;;;;;5090782;28;20207;-77
2023/03/08 13:39:53;;;;;;;2.83;2.23;;;;;;;;;;5090517;28;20227;-77
2023/03/08 13:42:23;;;;;;;2.33;2.03;;;;;;;;;;5090235;28;20242;-77
2023/03/08 13:44:51;;;;;;;2.47;1.70;;;;;;;;;;5090418;28;20678;-77
2023/03/08 13:47:23;;;;;;;2.20;2.00;;;;;;;;;;5090798;28;20210;-78
2023/03/08 13:49:50;;;;;;;3.77;1.80;;;;;;;;;;5094497;28;20194;-77
2023/03/08 13:52:20;;;;;;;2.47;2.00;;;;;;;;;;5094816;28;20207;-77
2023/03/08 13:54:49;;;;;;;2.27;1.70;;;;;;;;;;5094117;28;20209;-77
2023/03/08 13:57:20;;;;;;;1.77;1.67;;;;;;;;;;5094552;28;20204;-77
2023/03/08 13:59:48;;;;;;;1.60;1.50;;;;;;;;;;5095034;28;20562;-77
2023/03/08 14:02:20;;;;;;;2.77;1.67;;;;;;;;;;5093626;28;20654;-77
2023/03/08 14:04:47;;;;;;;1.90;1.80;;;;;;;;;;5074415;28;20230;-77
2023/03/08 14:07:21;;;;;;;1.63;1.53;;;;;;;;;;5089377;28;20245;-77
2023/03/08 14:09:48;;;;;;;6.27;2.10;;;;;;;;;;5094459;28;20214;-77
2023/03/08 14:12:17;;;;;;;1.83;1.70;;;;;;;;;;5093703;28;20205;-77
2023/03/08 14:14:46;;;;;;;1.77;1.67;;;;;;;;;;5094196;28;20203;-77
2023/03/08 14:17:20;;;;;;;2.33;2.10;;;;;;;;;;5094528;28;20252;-77
2023/03/08 14:19:53;;;;;;;2.67;2.43;;;;;;;;;;5094587;28;20229;-77
2023/03/08 14:22:20;;;;;;;3.83;2.63;;;;;;;;;;5092848;28;20203;-77
2023/03/08 14:24:51;;;;;;;8.60;6.30;;;;;;;;;;5094071;28;20679;-77
2023/03/08 14:27:37;;;;;;;7.40;3.37;;;;;;;;;;5093842;28;20229;-77
2023/03/08 14:30:12;;;;;;;4.70;2.20;;;;;;;;;;5093603;28;20279;-77
2023/03/08 14:32:41;;;;;;;4.73;3.87;;;;;;;;;;5093729;28;20201;-77
2023/03/08 14:35:16;;;;;;;10.27;4.47;;;;;;;;;;5094044;28;20198;-77
2023/03/08 14:37:44;;;;;;;5.37;4.63;;;;;;;;;;5082776;28;20197;-77
2023/03/08 14:40:21;;;;;;;5.63;4.17;;;;;;;;;;5091624;28;20261;-77
2023/03/08 14:42:50;;;;;;;7.87;4.93;;;;;;;;;;5093462;28;20200;-76
2023/03/08 14:45:21;;;;;;;9.87;7.40;;;;;;;;;;5093408;28;20292;-78
2023/03/08 14:47:52;;;;;;;5.40;4.33;;;;;;;;;;5093584;28;20265;-77
2023/03/08 14:50:22;;;;;;;7.07;5.67;;;;;;;;;;5093245;28;20597;-77
2023/03/08 14:52:50;;;;;;;10.07;7.77;;;;;;;;;;5093766;28;20216;-77
2023/03/08 14:55:23;;;;;;;18.50;13.30;;;;;;;;;;5093483;28;20742;-77
2023/03/08 14:57:53;;;;;;;16.67;10.17;;;;;;;;;;5090568;28;20287;-77
2023/03/08 15:00:22;;;;;;;25.87;12.60;;;;;;;;;;5082718;28;20254;-77
2023/03/08 15:02:50;;;;;;;18.30;11.00;;;;;;;;;;5088887;28;20259;-77
2023/03/08 15:05:19;;;;;;;30.23;17.97;;;;;;;;;;5084192;28;20208;-78
2023/03/08 15:07:46;;;;;;;23.13;12.57;;;;;;;;;;5093058;28;20220;-77
2023/03/08 15:10:23;;;;;;;36.07;19.40;;;;;;;;;;5080912;28;20215;-77
2023/03/08 15:12:50;;;;;;;19.97;13.20;;;;;;;;;;5092797;28;20200;-77
2023/03/08 15:15:18;;;;;;;53.17;27.30;;;;;;;;;;5093202;28;20204;-78
2023/03/08 15:17:45;;;;;;;19.27;10.47;;;;;;;;;;5092934;28;20197;-77
2023/03/08 15:20:14;;;;;;;68.83;35.43;;;;;;;;;;5092256;28;20212;-77
2023/03/08 15:22:44;;;;;;;57.60;27.33;;;;;;;;;;5080596;28;20589;-78